Time;durP1;ratioP1;P1;durP2;ratioP2;P2;SDS_P1;SDS_P2;PMS_P1;PMS_P2;Temp;Humidity;BMP_temperature;BMP_pressure;BME280_temperature;BME280_humidity;BME280_pressure;Samples;Min_cycle;Max_cycle;Signal;HPM_P1;HPM_P2
2023/03/28 00:00:42;;;;;;;11.57;2.35;;;;;;;;;;5073107;28;20036;-57
2023/03/28 00:03:13;;;;;;;19.75;2.55;;;;;;;;;;5070702;28;20068;-57
2023/03/28 00:05:39;;;;;;;13.18;2.00;;;;;;;;;;5071868;28;20052;-56
2023/03/28 00:08:05;;;;;;;16.10;1.90;;;;;;;;;;5073086;28;20115;-57
2023/03/28 00:10:32;;;;;;;17.63;1.90;;;;;;;;;;5072233;28;20686;-57
2023/03/28 00:12:58;;;;;;;12.93;1.65;;;;;;;;;;5073059;28;20109;-57
2023/03/28 00:15:24;;;;;;;9.25;2.00;;;;;;;;;;5072206;28;20052;-57
2023/03/28 00:17:51;;;;;;;13.60;1.92;;;;;;;;;;5072349;28;20488;-57
2023/03/28 00:20:18;;;;;;;14.50;2.25;;;;;;;;;;5070272;28;21118;-57
2023/03/28 00:22:44;;;;;;;14.98;1.77;;;;;;;;;;5072664;28;20039;-57
2023/03/28 00:25:12;;;;;;;19.75;2.03;;;;;;;;;;5072834;28;20032;-57
2023/03/28 00:27:38;;;;;;;12.13;2.47;;;;;;;;;;5071769;28;20568;-57
2023/03/28 00:30:04;;;;;;;12.75;1.80;;;;;;;;;;5077735;28;20136;-57
2023/03/28 00:32:31;;;;;;;17.77;3.15;;;;;;;;;;5080115;28;20048;-57
2023/03/28 00:34:57;;;;;;;11.52;2.42;;;;;;;;;;5079590;28;20117;-57
2023/03/28 00:37:23;;;;;;;18.20;2.40;;;;;;;;;;5096046;27;20036;-56
2023/03/28 00:39:49;;;;;;;14.90;2.38;;;;;;;;;;5079622;28;20036;-57
2023/03/28 00:42:21;;;;;;;17.38;2.55;;;0.90;99.90;;;;;;5079262;28;20505;-57
2023/03/28 00:44:55;;;;;;;17.10;2.28;;;1.10;99.90;;;;;;5079791;28;20055;-57
2023/03/28 00:47:26;;;;;;;13.70;1.77;;;1.00;99.90;;;;;;5079143;28;20069;-57
2023/03/28 00:50:21;;;;;;;18.77;2.38;;;0.90;99.90;;;;;;5077222;28;20594;-57
2023/03/28 00:52:53;;;;;;;7.05;1.80;;;;;;;;;;5079142;28;20036;-57
2023/03/28 00:55:25;;;;;;;13.23;2.10;;;0.80;99.90;;;;;;5079566;28;20071;-57
2023/03/28 00:57:51;;;;;;;15.07;2.42;;;;;;;;;;5079604;28;20118;-57
2023/03/28 01:00:17;;;;;;;12.90;1.98;;;0.80;99.90;;;;;;5078536;28;20059;-57
2023/03/28 01:02:49;;;;;;;17.27;2.25;;;1.00;99.90;;;;;;5077938;28;20036;-57
2023/03/28 01:05:17;;;;;;;19.73;2.03;;;0.70;99.90;;;;;;5077693;28;20571;-57
2023/03/28 01:07:47;;;;;;;16.50;1.88;;;0.70;99.90;;;;;;5078254;28;20079;-57
2023/03/28 01:10:14;;;;;;;16.33;2.70;;;0.90;99.90;;;;;;5078401;28;20191;-57
2023/03/28 01:12:42;;;;;;;12.57;1.83;;;0.80;99.90;;;;;;5078396;28;20035;-56
2023/03/28 01:15:09;;;;;;;13.43;1.88;;;0.80;99.90;;;;;;5078857;28;20481;-57
2023/03/28 01:17:35;;;;;;;11.18;2.22;;;;;;;;;;5077681;28;20039;-57
2023/03/28 01:20:25;;;;;;;21.88;3.75;;;0.80;99.90;;;;;;5077462;28;20043;-57
2023/03/28 01:22:51;;;;;;;12.98;1.88;;;;;;;;;;5078158;28;20040;-57
2023/03/28 01:25:56;;;;;;;13.80;1.90;;;0.50;99.90;;;;;;5077948;28;20047;-56
2023/03/28 01:28:41;;;;;;;16.15;2.40;;;0.70;99.90;;;;;;5077937;28;20048;-57
2023/03/28 01:31:07;;;;;;;12.65;2.15;;;;;;;;;;5078045;28;20058;-56
2023/03/28 01:33:33;;;;;;;16.77;2.13;;;;;;;;;;5077154;28;20066;-57
2023/03/28 01:36:27;;;;;;;13.57;2.00;;;0.60;99.90;;;;;;5078453;28;20074;-56
2023/03/28 01:39:03;;;;;;;10.07;1.50;;;0.70;99.90;;;;;;5079276;28;20162;-56
2023/03/28 01:41:35;;;;;;;12.35;2.25;;;0.70;99.90;;;;;;5076011;28;20036;-57
2023/03/28 01:44:34;;;;;;;22.88;3.45;;;0.70;99.90;;;;;;5076109;28;20059;-57
2023/03/28 01:47:22;;;;;;;20.42;3.15;;;;;;;;;;5074812;28;20075;-56
2023/03/28 01:50:06;;;;;;;16.50;2.05;;;0.60;99.90;;;;;;5074462;28;21133;-57
2023/03/28 01:52:51;;;;;;;12.00;1.95;;;0.60;99.90;;;;;;5075583;28;20036;-57
2023/03/28 01:55:34;;;;;;;12.82;3.83;;;0.60;99.90;;;;;;5074271;28;20044;-56
2023/03/28 01:58:16;;;;;;;20.25;2.28;;;0.70;99.90;;;;;;5075376;28;20090;-56
2023/03/28 02:00:46;;;;;;;17.83;2.50;;;0.60;99.90;;;;;;5077031;28;20051;-57
2023/03/28 02:03:21;;;;;;;15.80;2.40;;;0.70;99.90;;;;;;5075977;28;20044;-57
2023/03/28 02:05:49;;;;;;;14.38;2.25;;;0.30;99.90;;;;;;5074846;28;20046;-58
2023/03/28 02:08:17;;;;;;;13.35;2.15;;;0.50;99.90;;;;;;5077208;28;20036;-57
2023/03/28 02:10:45;;;;;;;16.50;2.53;;;0.50;99.90;;;;;;5075446;28;20032;-57
2023/03/28 02:13:19;;;;;;;12.55;2.47;;;0.60;99.90;;;;;;5075115;28;20522;-58
2023/03/28 02:15:51;;;;;;;14.32;1.90;;;0.60;99.90;;;;;;5074702;28;20218;-56
2023/03/28 02:18:33;;;;;;;14.73;2.78;;;0.50;99.90;;;;;;5075216;28;20485;-56
2023/03/28 02:21:06;;;;;;;22.35;2.70;;;0.60;99.90;;;;;;5074575;28;20071;-57
2023/03/28 02:23:49;;;;;;;18.60;2.63;;;0.80;99.90;;;;;;5073878;28;20078;-56
2023/03/28 02:26:16;;;;;;;17.88;3.13;;;;;;;;;;5074828;28;20071;-57
2023/03/28 02:28:43;;;;;;;16.83;2.70;;;0.50;99.90;;;;;;5073806;28;20050;-57
2023/03/28 02:31:10;;;;;;;12.93;2.63;;;;;;;;;;5073694;28;20082;-57
2023/03/28 02:33:47;;;;;;;16.13;2.08;;;0.50;99.90;;;;;;5073032;28;20127;-56
2023/03/28 02:36:34;;;;;;;18.95;3.65;;;;;;;;;;5073296;28;20079;-57
2023/03/28 02:39:12;;;;;;;19.40;3.00;;;;;;;;;;5075030;28;20776;-57
2023/03/28 02:41:44;;;;;;;11.68;1.90;;;;;;;;;;5074757;28;20048;-56
2023/03/28 02:44:26;;;;;;;;;;;0.30;99.90;;;;;;5074591;28;20051;-57
2023/03/28 02:47:37;;;;;;;12.70;2.22;;;0.30;99.90;;;;;;5073471;28;19944;-56
2023/03/28 02:50:24;;;;;;;11.75;2.67;;;0.10;99.90;;;;;;5073423;28;20500;-57
2023/03/28 02:52:51;;;;;;;16.30;2.67;;;;;;;;;;5072991;28;20098;-57
2023/03/28 02:55:28;;;;;;;16.80;3.00;;;-0.10;99.90;;;;;;5073181;28;20040;-56
2023/03/28 02:58:02;;;;;;;11.63;1.95;;;0.10;99.90;;;;;;5072710;28;20386;-57
2023/03/28 03:00:28;;;;;;;11.98;1.85;;;;;;;;;;5073492;28;20055;-57
2023/03/28 03:02:54;;;;;;;22.33;2.20;;;;;;;;;;5073047;28;20040;-56
2023/03/28 03:05:21;;;;;;;12.38;2.00;;;;;;;;;;5072119;28;20605;-57
2023/03/28 03:07:48;;;;;;;15.18;2.30;;;;;;;;;;5073167;28;20123;-57
2023/03/28 03:10:16;;;;;;;12.27;2.03;;;;;;;;;;5074270;28;20048;-57
2023/03/28 03:12:42;;;;;;;14.07;2.10;;;-0.10;99.90;;;;;;5072501;28;20048;-57
2023/03/28 03:15:09;;;;;;;14.00;1.80;;;;;;;;;;5072681;28;20048;-56
2023/03/28 03:17:36;;;;;;;13.75;1.90;;;;;;;;;;5073710;28;20185;-58
2023/03/28 03:20:05;;;;;;;19.92;3.38;;;;;;;;;;5073018;28;20827;-57
2023/03/28 03:22:32;;;;;;;11.75;2.30;;;;;;;;;;5073885;28;20044;-56
2023/03/28 03:25:05;;;;;;;11.20;1.92;;;;;;;;;;5073838;28;20054;-57
2023/03/28 03:27:31;;;;;;;22.08;3.55;;;;;;;;;;5074437;28;20305;-57
2023/03/28 03:29:58;;;;;;;14.27;2.10;;;;;;;;;;5073243;28;20051;-57
2023/03/28 03:32:24;;;;;;;13.93;2.17;;;;;;;;;;5073820;28;20127;-57
2023/03/28 03:34:50;;;;;;;19.95;3.00;;;;;;;;;;5073241;28;20036;-57
2023/03/28 03:37:16;;;;;;;10.95;1.73;;;;;;;;;;5074243;28;20048;-57
2023/03/28 03:39:45;;;;;;;12.52;1.98;;;-0.50;99.90;;;;;;5075203;28;20044;-57
2023/03/28 03:42:12;;;;;;;14.00;2.22;;;;;;;;;;5073767;28;20365;-57
2023/03/28 03:44:38;;;;;;;9.20;1.67;;;;;;;;;;5073439;28;20123;-56
2023/03/28 03:47:05;;;;;;;12.52;1.88;;;;;;;;;;5073610;28;20067;-57
2023/03/28 03:49:31;;;;;;;11.38;2.03;;;;;;;;;;5073118;28;20043;-57
2023/03/28 03:51:57;;;;;;;12.07;1.90;;;;;;;;;;5072892;28;20040;-57
2023/03/28 03:54:23;;;;;;;10.48;2.13;;;;;;;;;;5072387;28;20486;-56
2023/03/28 03:56:49;;;;;;;21.10;4.07;;;;;;;;;;5071954;28;20131;-57
2023/03/28 03:59:15;;;;;;;15.52;2.60;;;;;;;;;;5072534;28;20054;-57
2023/03/28 04:01:42;;;;;;;11.48;2.10;;;;;;;;;;5071511;28;20649;-57
2023/03/28 04:04:09;;;;;;;17.55;2.38;;;;;;;;;;5071076;28;20102;-57
2023/03/28 04:06:37;;;;;;;14.05;2.45;;;;;;;;;;5071702;28;20408;-57
2023/03/28 04:09:03;;;;;;;17.10;2.75;;;;;;;;;;5073487;28;20040;-57
2023/03/28 04:11:29;;;;;;;17.33;3.08;;;;;;;;;;5072361;28;20428;-57
2023/03/28 04:13:56;;;;;;;10.65;2.00;;;;;;;;;;5072612;28;20048;-57
2023/03/28 04:16:22;;;;;;;18.95;2.53;;;;;;;;;;5072641;28;20145;-57
2023/03/28 04:18:51;;;;;;;11.65;3.30;;;;;;;;;;5072379;28;20044;-56
2023/03/28 04:21:21;;;;;;;12.25;2.20;;;-0.60;99.90;;;;;;5072896;28;20076;-57
2023/03/28 04:23:47;;;;;;;13.57;2.88;;;;;;;;;;5072482;28;20169;-57
2023/03/28 04:26:14;;;;;;;23.40;2.78;;;;;;;;;;5072658;28;20131;-57
2023/03/28 04:28:40;;;;;;;11.05;1.90;;;;;;;;;;5071810;28;20670;-57
2023/03/28 04:31:07;;;;;;;19.00;2.25;;;;;;;;;;5071452;28;20147;-57
2023/03/28 04:33:33;;;;;;;16.52;2.40;;;;;;;;;;5070924;28;20054;-57
2023/03/28 04:36:00;;;;;;;18.20;3.08;;;-0.50;99.90;;;;;;5072778;28;20067;-57
2023/03/28 04:38:34;;;;;;;10.30;2.42;;;-0.20;99.90;;;;;;5071062;28;20036;-57
2023/03/28 04:41:03;;;;;;;20.33;3.58;;;;;;;;;;5072226;28;20515;-57
2023/03/28 04:43:30;;;;;;;18.08;2.20;;;;;;;;;;5072446;28;20100;-57
2023/03/28 04:45:57;;;;;;;20.92;4.05;;;0.00;99.90;;;;;;5072196;28;20040;-56
2023/03/28 04:48:24;;;;;;;20.23;3.60;;;0.00;99.90;;;;;;5071223;28;20720;-56
2023/03/28 04:50:50;;;;;;;16.83;2.33;;;;;;;;;;5071437;28;20051;-57
2023/03/28 04:53:16;;;;;;;15.05;2.42;;;;;;;;;;5071241;28;20052;-57
2023/03/28 04:55:47;;;;;;;15.48;2.97;;;0.00;99.90;;;;;;5072440;28;20076;-57
2023/03/28 04:58:14;;;;;;;15.23;2.40;;;;;;;;;;5073142;28;20036;-57
2023/03/28 05:00:41;;;;;;;22.17;2.35;;;;;;;;;;5072128;28;20048;-57
2023/03/28 05:03:17;;;;;;;13.27;3.22;;;0.20;99.90;;;;;;5072568;28;20055;-57
2023/03/28 05:05:44;;;;;;;14.05;2.75;;;0.30;99.90;;;;;;5071616;28;20683;-57
2023/03/28 05:08:11;;;;;;;13.40;2.60;;;;;;;;;;5073051;28;20491;-57
2023/03/28 05:10:38;;;;;;;19.15;2.67;;;;;;;;;;5072655;28;20433;-57
2023/03/28 05:13:04;;;;;;;15.93;3.55;;;;;;;;;;5072523;28;20088;-58
2023/03/28 05:15:30;;;;;;;30.67;4.18;;;;;;;;;;5073624;28;20048;-56
2023/03/28 05:17:57;;;;;;;19.17;3.05;;;0.50;99.90;;;;;;5077483;28;20400;-57
2023/03/28 05:20:23;;;;;;;16.30;2.50;;;;;;;;;;5075633;28;20059;-57
2023/03/28 05:22:49;;;;;;;16.92;2.80;;;;;;;;;;5075553;28;20040;-57
2023/03/28 05:25:16;;;;;;;19.50;3.55;;;;;;;;;;5074695;28;20481;-57
2023/03/28 05:27:42;;;;;;;12.25;2.17;;;;;;;;;;5076177;28;20142;-57
2023/03/28 05:30:09;;;;;;;19.55;3.17;;;0.90;99.90;;;;;;5074928;28;20408;-57
2023/03/28 05:32:36;;;;;;;13.25;2.85;;;;;;;;;;5075219;28;20043;-57
2023/03/28 05:35:07;;;;;;;19.92;2.95;;;0.90;99.90;;;;;;5074134;28;20048;-56
2023/03/28 05:37:33;;;;;;;15.32;2.53;;;;;;;;;;5074169;28;20493;-57
2023/03/28 05:39:59;;;;;;;16.50;2.40;;;;;;;;;;5076916;28;20032;-57
2023/03/28 05:42:26;;;;;;;15.00;2.58;;;;;;;;;;5073645;28;20324;-56
2023/03/28 05:44:52;;;;;;;19.75;2.53;;;;;;;;;;5075292;28;20458;-56
2023/03/28 05:47:19;;;;;;;13.93;2.80;;;;;;;;;;5074250;28;20032;-57
2023/03/28 05:49:45;;;;;;;11.50;2.13;;;;;;;;;;5074891;28;20387;-57
2023/03/28 05:52:11;;;;;;;16.95;2.75;;;;;;;;;;5075128;28;20048;-56
2023/03/28 05:54:37;;;;;;;15.40;2.85;;;;;;;;;;5074572;28;20132;-57
2023/03/28 05:57:03;;;;;;;16.73;3.28;;;;;;;;;;5074609;28;20587;-57
2023/03/28 05:59:31;;;;;;;15.38;1.80;;;;;;;;;;5075595;28;20043;-57
2023/03/28 06:01:57;;;;;;;12.55;3.75;;;;;;;;;;5074356;28;20107;-57
2023/03/28 06:04:24;;;;;;;12.50;2.42;;;;;;;;;;5073575;28;20220;-58
2023/03/28 06:06:50;;;;;;;13.80;3.72;;;;;;;;;;5073964;28;20063;-56
2023/03/28 06:09:17;;;;;;;11.82;2.40;;;;;;;;;;5076172;28;20375;-57
2023/03/28 06:11:43;;;;;;;10.38;3.15;;;;;;;;;;5075186;28;20660;-57
2023/03/28 06:14:10;;;;;;;13.88;2.42;;;1.90;99.90;;;;;;5075582;28;20055;-57
2023/03/28 06:16:36;;;;;;;11.18;2.22;;;;;;;;;;5074370;28;20087;-57
2023/03/28 06:19:03;;;;;;;15.18;2.35;;;2.00;99.90;;;;;;5075638;28;20055;-56
2023/03/28 06:21:29;;;;;;;13.88;2.33;;;;;;;;;;5076014;28;20059;-56
2023/03/28 06:23:55;;;;;;;14.75;2.35;;;;;;;;;;5075038;28;20587;-56
2023/03/28 06:26:21;;;;;;;11.18;2.17;;;;;;;;;;5074475;28;20040;-56
2023/03/28 06:28:47;;;;;;;14.90;3.17;;;;;;;;;;5075291;28;20528;-57
2023/03/28 06:31:15;;;;;;;15.55;4.43;;;;;;;;;;5075058;28;20044;-57
2023/03/28 06:33:41;;;;;;;23.52;1.73;;;;;;;;;;5073920;28;20074;-57
2023/03/28 06:36:08;;;;;;;10.18;2.38;;;2.60;99.90;;;;;;5074108;28;20051;-57
2023/03/28 06:38:34;;;;;;;15.80;2.63;;;;;;;;;;5074615;28;20043;-57
2023/03/28 06:41:00;;;;;;;12.52;2.45;;;;;;;;;;5075113;28;20040;-56
2023/03/28 06:43:26;;;;;;;14.02;2.08;;;;;;;;;;5074079;28;20048;-57
2023/03/28 06:45:52;;;;;;;14.30;3.05;;;;;;;;;;5072620;28;20044;-57
2023/03/28 06:48:19;;;;;;;23.10;2.45;;;;;;;;;;5073979;28;20082;-56
2023/03/28 06:50:49;;;;;;;16.92;2.13;;;;;;;;;;5073958;28;20071;-56
2023/03/28 06:53:15;;;;;;;8.57;1.60;;;;;;;;;;5073700;28;20135;-56
2023/03/28 06:55:42;;;;;;;7.53;1.50;;;;;;;;;;5072891;28;20036;-57
2023/03/28 06:58:08;;;;;;;13.57;2.05;;;3.70;99.90;;;;;;5073515;28;20039;-57
2023/03/28 07:00:34;;;;;;;11.35;2.15;;;;;;;;;;5072917;28;20056;-57
2023/03/28 07:03:00;;;;;;;13.57;1.67;;;5.50;99.90;;;;;;5074495;28;20091;-57
2023/03/28 07:05:26;;;;;;;10.88;1.45;;;7.20;99.90;;;;;;5072611;28;20127;-57
2023/03/28 07:07:52;;;;;;;9.73;2.22;;;8.50;99.90;;;;;;5072997;28;20048;-56
2023/03/28 07:10:18;;;;;;;12.88;1.92;;;9.30;99.90;;;;;;5073319;28;20044;-56
2023/03/28 07:12:43;;;;;;;10.50;2.20;;;9.80;99.90;;;;;;5074171;28;20400;-57
2023/03/28 07:15:09;;;;;;;10.05;1.67;;;10.30;99.90;;;;;;5071179;28;20420;-57
2023/03/28 07:17:35;;;;;;;8.05;1.65;;;10.50;99.90;;;;;;5073091;28;20428;-57
2023/03/28 07:20:02;;;;;;;12.23;1.80;;;10.30;99.90;;;;;;5072329;28;20126;-56
2023/03/28 07:22:28;;;;;;;9.60;1.70;;;10.70;99.90;;;;;;5074055;28;20051;-57
2023/03/28 07:24:54;;;;;;;8.18;1.70;;;10.90;99.90;;;;;;5073081;28;20044;-57
2023/03/28 07:27:20;;;;;;;8.60;1.83;;;11.80;99.90;;;;;;5074238;28;20036;-57
2023/03/28 07:29:45;;;;;;;8.63;1.80;;;12.30;99.90;;;;;;5072312;28;20097;-56
2023/03/28 07:32:12;;;;;;;10.27;2.35;;;12.80;99.90;;;;;;5074939;28;20048;-56
2023/03/28 07:34:39;;;;;;;9.40;1.90;;;13.40;99.90;;;;;;5074269;28;20052;-56
2023/03/28 07:37:05;;;;;;;9.98;1.50;;;13.40;99.90;;;;;;5074375;28;20055;-56
2023/03/28 07:39:31;;;;;;;6.88;1.40;;;13.20;99.90;;;;;;5073263;28;20044;-56
2023/03/28 07:41:57;;;;;;;9.75;1.65;;;13.20;99.90;;;;;;5074165;28;21113;-57
2023/03/28 07:44:22;;;;;;;8.30;1.50;;;13.30;99.90;;;;;;5074915;28;20055;-57
2023/03/28 07:46:50;;;;;;;9.27;1.40;;;14.10;99.90;;;;;;5074223;28;20489;-56
2023/03/28 07:49:16;;;;;;;9.40;1.40;;;12.30;99.90;;;;;;5073624;28;20413;-56
2023/03/28 07:51:42;;;;;;;9.93;1.58;;;11.20;99.90;;;;;;5073332;28;20097;-56
2023/03/28 07:54:16;;;;;;;4.85;1.33;;;10.40;99.90;;;;;;5073471;28;20040;-56
2023/03/28 07:56:43;;;;;;;8.25;1.40;;;9.80;99.90;;;;;;5073908;28;20048;-56
2023/03/28 07:59:09;;;;;;;8.95;1.35;;;9.40;99.90;;;;;;5073931;28;20068;-56
2023/03/28 08:01:34;;;;;;;5.40;1.10;;;9.50;99.90;;;;;;5072476;28;20067;-56
2023/03/28 08:04:02;;;;;;;7.78;1.40;;;8.80;99.90;;;;;;5072177;28;20044;-56
2023/03/28 08:06:27;;;;;;;8.63;1.50;;;8.50;99.90;;;;;;5071766;28;20048;-56
2023/03/28 08:08:53;;;;;;;8.10;1.42;;;8.40;99.90;;;;;;5073236;28;20052;-56
2023/03/28 08:11:20;;;;;;;8.05;1.17;;;8.30;99.90;;;;;;5072802;28;20436;-56
2023/03/28 08:13:45;;;;;;;9.18;1.70;;;8.00;99.90;;;;;;5072151;28;20054;-56
2023/03/28 08:16:11;;;;;;;8.75;1.42;;;8.70;99.90;;;;;;5072733;28;20396;-56
2023/03/28 08:18:37;;;;;;;5.95;1.50;;;8.40;99.90;;;;;;5072563;28;20125;-56
2023/03/28 08:21:02;;;;;;;10.20;1.50;;;7.40;99.90;;;;;;5071914;28;20527;-57
2023/03/28 08:23:28;;;;;;;8.32;2.30;;;7.60;99.90;;;;;;5072464;28;20038;-56
2023/03/28 08:26:04;;;;;;;7.07;1.40;;;7.40;99.90;;;;;;5072256;28;20137;-56
2023/03/28 08:28:32;;;;;;;7.50;1.40;;;7.50;99.90;;;;;;5071681;28;20051;-56
2023/03/28 08:30:58;;;;;;;7.85;1.67;;;7.40;99.90;;;;;;5072007;28;20127;-55
2023/03/28 08:33:23;;;;;;;8.23;1.50;;;8.40;99.90;;;;;;5072540;28;20058;-56
2023/03/28 08:35:52;;;;;;;8.75;1.65;;;7.50;99.90;;;;;;5071464;28;20521;-56
2023/03/28 08:38:19;;;;;;;8.43;1.80;;;7.90;99.90;;;;;;5071433;28;20039;-56
2023/03/28 08:41:16;;;;;;;5.22;1.10;;;7.50;99.90;;;;;;5072295;28;20042;-56
2023/03/28 08:44:07;;;;;;;8.18;1.35;;;7.60;99.90;;;;;;5062739;28;20052;-55
2023/03/28 08:46:34;;;;;;;6.15;1.63;;;7.90;99.90;;;;;;5072061;28;20085;-56
2023/03/28 08:49:05;;;;;;;9.13;1.88;;;8.00;99.90;;;;;;5073087;28;20150;-56
2023/03/28 08:51:39;;;;;;;7.03;1.20;;;9.40;99.90;;;;;;5075134;28;20118;-56
2023/03/28 08:54:14;;;;;;;7.82;1.35;;;9.00;99.90;;;;;;5075673;28;20409;-56
2023/03/28 08:56:45;;;;;;;7.50;1.27;;;9.40;99.90;;;;;;5076062;28;20491;-56
2023/03/28 08:59:15;;;;;;;6.40;1.27;;;9.60;99.90;;;;;;5075757;28;20047;-56
2023/03/28 09:01:42;;;;;;;9.57;1.38;;;9.70;99.90;;;;;;5075494;28;20093;-56
2023/03/28 09:04:21;;;;;;;5.80;1.30;;;9.60;99.90;;;;;;5076485;28;20385;-56
2023/03/28 09:06:48;;;;;;;5.05;1.00;;;9.50;99.90;;;;;;5075753;28;20097;-56
2023/03/28 09:09:47;;;;;;;8.43;1.20;;;9.40;99.90;;;;;;5076003;28;20483;-56
2023/03/28 09:12:39;;;;;;;5.75;1.48;;;9.50;99.90;;;;;;5075924;28;20048;-56
2023/03/28 09:15:08;;;;;;;6.80;1.10;;;10.00;99.90;;;;;;5076247;28;20127;-56
2023/03/28 09:18:05;;;;;;;6.65;1.40;;;10.00;99.90;;;;;;5074664;28;20048;-56
2023/03/28 09:20:54;;;;;;;4.38;1.20;;;9.70;99.90;;;;;;5074774;28;20978;-57
2023/03/28 09:23:53;;;;;;;8.07;0.98;;;9.30;99.90;;;;;;5073818;28;20059;-55
2023/03/28 09:26:24;;;;;;;11.55;1.17;;;9.20;99.90;;;;;;5074557;28;20678;-56
2023/03/28 09:29:09;;;;;;;4.90;0.93;;;9.40;99.90;;;;;;5073178;28;20095;-56
2023/03/28 09:31:42;;;;;;;5.88;0.70;;;9.50;99.90;;;;;;5073866;28;20044;-56
2023/03/28 09:34:19;;;;;;;4.97;1.00;;;9.00;99.90;;;;;;5073791;28;20101;-56
2023/03/28 09:36:45;;;;;;;6.47;1.00;;;8.80;99.90;;;;;;5071977;28;20345;-60
2023/03/28 09:40:07;;;;;;;3.95;0.85;;;8.50;99.90;;;;;;5074423;28;20242;-56
2023/03/28 09:43:26;;;;;;;5.88;0.93;;;8.40;99.90;;;;;;5061713;28;20048;-56
2023/03/28 09:46:08;;;;;;;8.68;1.20;;;8.30;99.90;;;;;;5009863;28;20069;-56
2023/03/28 09:48:38;;;;;;;6.75;1.02;;;8.90;99.90;;;;;;5067370;28;20043;-56
2023/03/28 09:51:11;;;;;;;3.05;0.77;;;8.80;99.90;;;;;;5072411;28;20516;-56
2023/03/28 09:53:37;;;;;;;7.35;1.30;;;8.80;99.90;;;;;;5073463;28;20096;-56
2023/03/28 09:56:07;;;;;;;5.75;1.15;;;8.80;99.90;;;;;;5074714;28;20675;-56
2023/03/28 09:58:52;;;;;;;5.18;1.55;;;9.00;99.90;;;;;;5075324;28;20047;-56
2023/03/28 10:01:28;;;;;;;4.00;1.20;;;8.70;99.90;;;;;;5074053;28;20051;-56
2023/03/28 10:03:55;;;;;;;4.50;0.90;;;8.90;99.90;;;;;;5075197;28;20604;-55
2023/03/28 10:06:27;;;;;;;7.03;1.05;;;9.10;99.90;;;;;;5074988;28;20069;-56
2023/03/28 10:09:14;;;;;;;4.55;1.05;;;9.10;99.90;;;;;;5074918;28;20531;-56
2023/03/28 10:12:03;;;;;;;5.82;1.20;;;9.30;99.90;;;;;;5075629;28;20579;-56
2023/03/28 10:14:40;;;;;;;9.00;1.60;;;9.20;99.90;;;;;;5074860;28;20404;-56
2023/03/28 10:17:32;;;;;;;5.30;1.52;;;9.00;99.90;;;;;;5075442;28;20082;-56
2023/03/28 10:20:00;;;;;;;6.30;1.63;;;8.90;99.90;;;;;;5075142;28;20160;-56
2023/03/28 10:22:38;;;;;;;4.65;1.30;;;10.00;99.90;;;;;;5075278;28;20122;-56
2023/03/28 10:25:07;;;;;;;10.60;1.98;;;9.50;99.90;;;;;;5073960;28;20044;-56
2023/03/28 10:27:35;;;;;;;6.30;1.23;;;10.00;99.90;;;;;;5075167;28;20036;-56
2023/03/28 10:30:22;;;;;;;7.57;1.55;;;9.10;99.90;;;;;;5074392;28;20064;-56
2023/03/28 10:33:16;;;;;;;5.13;1.40;;;9.10;99.90;;;;;;5073812;28;20071;-56
2023/03/28 10:35:52;;;;;;;4.43;1.60;;;9.20;99.90;;;;;;5074153;28;20384;-57
2023/03/28 10:38:20;;;;;;;6.30;1.52;;;9.50;99.90;;;;;;5072681;28;21363;-56
2023/03/28 10:41:19;;;;;;;5.60;1.67;;;9.60;99.90;;;;;;5074285;28;20600;-56
2023/03/28 10:43:45;;;;;;;6.82;1.98;;;9.60;99.90;;;;;;5073170;28;20059;-57
2023/03/28 10:46:14;;;;;;;7.18;1.92;;;9.80;99.90;;;;;;5071981;28;20071;-57
2023/03/28 10:48:45;;;;;;;7.30;1.83;;;9.40;99.90;;;;;;5072224;28;20063;-56
2023/03/28 10:51:20;;;;;;;6.18;1.52;;;9.20;99.90;;;;;;5073389;28;20040;-56
2023/03/28 10:54:01;;;;;;;7.03;2.10;;;8.80;99.90;;;;;;5072321;28;20063;-56
2023/03/28 10:56:41;;;;;;;8.35;2.20;;;8.60;99.90;;;;;;5072168;28;20051;-56
2023/03/28 10:59:33;;;;;;;5.97;1.70;;;8.80;99.90;;;;;;5072536;28;20135;-56
2023/03/28 11:02:07;;;;;;;7.53;3.22;;;8.60;99.90;;;;;;5072680;28;20043;-57
2023/03/28 11:04:57;;;;;;;10.68;2.35;;;8.50;99.90;;;;;;5072311;28;20048;-56
2023/03/28 11:07:35;;;;;;;5.72;1.75;;;9.00;99.90;;;;;;5071529;28;20135;-56
2023/03/28 11:10:39;;;;;;;6.70;1.98;;;8.80;99.90;;;;;;5072639;28;20040;-56
2023/03/28 11:13:31;;;;;;;8.23;1.75;;;8.70;99.90;;;;;;5071632;28;20111;-56
2023/03/28 11:16:07;;;;;;;5.60;1.88;;;8.80;99.90;;;;;;5073601;28;20047;-56
2023/03/28 11:19:00;;;;;;;8.52;1.80;;;8.90;99.90;;;;;;5072195;28;20048;-55
2023/03/28 11:21:55;;;;;;;6.05;2.10;;;9.10;99.90;;;;;;5073215;28;20419;-54
2023/03/28 11:24:48;;;;;;;7.63;2.17;;;9.10;99.90;;;;;;5074112;28;20040;-55
2023/03/28 11:27:14;;;;;;;9.65;1.83;;;9.30;99.90;;;;;;5073866;28;20058;-54
2023/03/28 11:30:15;;;;;;;6.15;1.98;;;9.40;99.90;;;;;;5070605;28;20560;-55
2023/03/28 11:32:47;;;;;;;7.25;1.88;;;9.80;99.90;;;;;;5049908;28;20074;-55
2023/03/28 11:35:36;;;;;;;8.75;2.65;;;9.80;99.90;;;;;;5072244;28;20036;-56
2023/03/28 11:38:10;;;;;;;6.80;2.17;;;9.50;99.90;;;;;;5072287;28;20519;-56
2023/03/28 11:40:47;;;;;;;7.22;2.28;;;9.50;99.90;;;;;;5072636;28;20036;-55
2023/03/28 11:43:30;;;;;;;6.10;1.77;;;9.30;99.90;;;;;;5073624;28;20093;-55
2023/03/28 11:46:12;;;;;;;6.65;1.60;;;9.30;99.90;;;;;;5071689;28;20048;-54
2023/03/28 11:48:57;;;;;;;5.80;1.52;;;9.20;99.90;;;;;;5071908;28;20048;-55
2023/03/28 11:51:50;;;;;;;8.57;2.20;;;9.30;99.90;;;;;;5071707;28;20050;-55
2023/03/28 11:54:23;;;;;;;7.60;2.20;;;9.30;99.90;;;;;;5071425;28;20132;-54
2023/03/28 11:57:27;;;;;;;7.35;1.90;;;9.40;99.90;;;;;;5071424;28;20082;-54
2023/03/28 12:00:08;;;;;;;8.55;2.35;;;9.50;99.90;;;;;;5064563;28;20775;-55
2023/03/28 12:02:41;;;;;;;5.57;1.70;;;9.40;99.90;;;;;;5072620;28;20109;-56
2023/03/28 12:05:31;;;;;;;6.57;2.25;;;9.60;99.90;;;;;;5071595;28;20269;-56
2023/03/28 12:08:22;;;;;;;7.13;2.15;;;9.60;99.90;;;;;;5072310;28;20062;-55
2023/03/28 12:11:13;;;;;;;9.57;2.70;;;9.40;99.90;;;;;;5071457;28;20052;-55
2023/03/28 12:13:49;;;;;;;6.10;1.90;;;9.40;99.90;;;;;;5071658;28;20054;-56
2023/03/28 12:16:22;;;;;;;6.72;1.90;;;9.50;99.90;;;;;;5071582;28;20282;-55
2023/03/28 12:19:00;;;;;;;5.40;2.00;;;9.80;99.90;;;;;;5070820;28;20055;-55
2023/03/28 12:21:32;;;;;;;7.72;2.38;;;10.00;99.90;;;;;;5069803;28;20077;-54
2023/03/28 12:24:13;;;;;;;10.52;2.70;;;10.10;99.90;;;;;;5071033;28;20050;-53
2023/03/28 12:27:16;;;;;;;7.63;2.63;;;10.00;99.90;;;;;;5071009;28;20119;-55
2023/03/28 12:29:58;;;;;;;6.50;2.20;;;10.40;99.90;;;;;;5070832;28;20522;-56
2023/03/28 12:32:57;;;;;;;8.57;2.22;;;10.10;99.90;;;;;;5070960;28;20686;-54
2023/03/28 12:35:32;;;;;;;12.20;2.60;;;9.90;99.90;;;;;;5071767;28;20059;-56
2023/03/28 12:38:01;;;;;;;5.45;2.28;;;9.60;99.90;;;;;;5073493;28;20048;-56
2023/03/28 12:40:54;;;;;;;6.18;2.40;;;9.30;99.90;;;;;;5072443;28;20060;-56
2023/03/28 12:43:26;;;;;;;8.80;2.25;;;9.40;99.90;;;;;;5073424;28;20040;-56
2023/03/28 12:45:59;;;;;;;7.38;2.28;;;9.30;99.90;;;;;;5073313;28;20475;-56
2023/03/28 12:48:40;;;;;;;4.85;2.22;;;9.50;99.90;;;;;;5072831;28;20309;-56
2023/03/28 12:51:24;;;;;;;8.32;2.47;;;9.30;99.90;;;;;;5072404;28;20032;-56
2023/03/28 12:54:14;;;;;;;9.02;2.33;;;9.20;99.90;;;;;;5072567;28;20390;-56
2023/03/28 12:56:57;;;;;;;7.65;2.47;;;9.20;99.90;;;;;;5072451;28;20231;-56
2023/03/28 12:59:37;;;;;;;8.45;2.45;;;9.10;99.90;;;;;;5073144;28;20040;-56
2023/03/28 13:02:37;;;;;;;4.75;2.33;;;9.10;99.90;;;;;;5072763;28;20043;-56
2023/03/28 13:05:30;;;;;;;12.15;2.80;;;8.90;99.90;;;;;;5044316;28;20059;-55
2023/03/28 13:08:28;;;;;;;7.68;2.50;;;9.00;99.90;;;;;;5072464;28;22593;-57
2023/03/28 13:11:16;;;;;;;8.95;2.58;;;9.20;99.90;;;;;;5060058;28;20051;-56
2023/03/28 13:14:12;;;;;;;7.97;2.10;;;9.30;99.90;;;;;;5070855;28;20089;-56
2023/03/28 13:17:16;;;;;;;8.82;2.80;;;9.10;99.90;;;;;;5072166;28;20075;-55
2023/03/28 13:19:42;;;;;;;8.50;2.28;;;9.40;99.90;;;;;;4993153;28;20099;-55
2023/03/28 13:22:29;;;;;;;7.70;2.60;;;9.10;99.90;;;;;;4996572;28;20037;-56
2023/03/28 13:25:20;;;;;;;8.90;2.80;;;8.90;99.90;;;;;;5040756;28;20044;-57
2023/03/28 13:27:48;;;;;;;7.43;2.22;;;8.90;99.90;;;;;;5071079;28;20044;-56
2023/03/28 13:30:16;;;;;;;8.23;2.75;;;9.00;99.90;;;;;;5070377;28;20056;-55
2023/03/28 13:32:49;;;;;;;4.95;2.53;;;9.10;99.90;;;;;;5070685;28;20059;-56
2023/03/28 13:35:47;;;;;;;5.28;2.55;;;9.10;99.90;;;;;;5070667;28;20044;-57
2023/03/28 13:38:27;;;;;;;7.95;2.63;;;9.10;99.90;;;;;;5074656;28;20117;-55
2023/03/28 13:41:08;;;;;;;8.25;2.67;;;9.10;99.90;;;;;;5075151;28;20056;-56
2023/03/28 13:43:56;;;;;;;9.60;2.60;;;8.90;99.90;;;;;;5075691;28;20556;-57
2023/03/28 13:46:25;;;;;;;11.77;4.78;;;8.90;99.90;;;;;;5075394;28;20048;-56
2023/03/28 13:49:03;;;;;;;9.00;3.17;;;8.80;99.90;;;;;;5075105;28;20040;-55
2023/03/28 13:51:42;;;;;;;6.55;2.33;;;8.80;99.90;;;;;;5074897;28;20040;-56
2023/03/28 13:54:11;;;;;;;9.23;2.83;;;9.00;99.90;;;;;;5074495;28;20388;-56
2023/03/28 13:56:42;;;;;;;9.15;3.17;;;8.90;99.90;;;;;;5074369;28;20113;-56